sensor_id;sensor_type;location;lat;lon;timestamp;temperature;humidity
67862;DHT22;54665;51.462;6.698;2023-05-18T00:00:59;8.60;68.35
67862;DHT22;54665;51.462;6.698;2023-05-18T00:03:27;8.52;68.60
67862;DHT22;54665;51.462;6.698;2023-05-18T00:05:54;8.50;68.40
67862;DHT22;54665;51.462;6.698;2023-05-18T00:08:22;8.56;68.22
67862;DHT22;54665;51.462;6.698;2023-05-18T00:10:47;8.52;68.31
67862;DHT22;54665;51.462;6.698;2023-05-18T00:13:13;8.45;68.81
67862;DHT22;54665;51.462;6.698;2023-05-18T00:15:38;8.28;69.48
67862;DHT22;54665;51.462;6.698;2023-05-18T00:18:03;8.33;69.24
67862;DHT22;54665;51.462;6.698;2023-05-18T00:20:29;8.38;68.94
67862;DHT22;54665;51.462;6.698;2023-05-18T00:22:54;8.32;68.97
67862;DHT22;54665;51.462;6.698;2023-05-18T00:25:20;8.20;69.49
67862;DHT22;54665;51.462;6.698;2023-05-18T00:27:45;8.18;70.00
67862;DHT22;54665;51.462;6.698;2023-05-18T00:30:13;8.15;69.97
67862;DHT22;54665;51.462;6.698;2023-05-18T00:32:38;8.18;69.70
67862;DHT22;54665;51.462;6.698;2023-05-18T00:35:04;8.18;69.52
67862;DHT22;54665;51.462;6.698;2023-05-18T00:37:30;8.08;70.16
67862;DHT22;54665;51.462;6.698;2023-05-18T00:39:55;8.01;70.32
67862;DHT22;54665;51.462;6.698;2023-05-18T00:42:21;8.14;69.92
67862;DHT22;54665;51.462;6.698;2023-05-18T00:44:46;8.05;70.06
67862;DHT22;54665;51.462;6.698;2023-05-18T00:47:12;8.09;70.08
67862;DHT22;54665;51.462;6.698;2023-05-18T00:49:38;8.08;70.12
67862;DHT22;54665;51.462;6.698;2023-05-18T00:52:04;7.99;70.51
67862;DHT22;54665;51.462;6.698;2023-05-18T00:54:30;7.98;70.61
67862;DHT22;54665;51.462;6.698;2023-05-18T00:56:57;8.04;70.39
67862;DHT22;54665;51.462;6.698;2023-05-18T00:59:27;8.02;70.27
67862;DHT22;54665;51.462;6.698;2023-05-18T01:01:52;8.04;70.30
67862;DHT22;54665;51.462;6.698;2023-05-18T01:04:18;7.99;70.42
67862;DHT22;54665;51.462;6.698;2023-05-18T01:06:46;7.88;70.65
67862;DHT22;54665;51.462;6.698;2023-05-18T01:09:12;7.84;71.16
67862;DHT22;54665;51.462;6.698;2023-05-18T01:14:08;7.73;71.67
67862;DHT22;54665;51.462;6.698;2023-05-18T01:16:42;7.83;71.32
67862;DHT22;54665;51.462;6.698;2023-05-18T01:19:42;7.77;71.23
67862;DHT22;54665;51.462;6.698;2023-05-18T01:25:11;7.70;71.66
67862;DHT22;54665;51.462;6.698;2023-05-18T01:27:43;7.78;71.67
67862;DHT22;54665;51.462;6.698;2023-05-18T01:30:15;7.70;71.70
67862;DHT22;54665;51.462;6.698;2023-05-18T01:32:44;7.70;71.79
67862;DHT22;54665;51.462;6.698;2023-05-18T01:35:10;7.69;71.76
67862;DHT22;54665;51.462;6.698;2023-05-18T01:37:36;7.51;72.94
67862;DHT22;54665;51.462;6.698;2023-05-18T01:40:02;7.61;72.64
67862;DHT22;54665;51.462;6.698;2023-05-18T01:42:29;7.61;72.50
67862;DHT22;54665;51.462;6.698;2023-05-18T01:45:02;7.61;72.65
67862;DHT22;54665;51.462;6.698;2023-05-18T01:47:30;7.60;72.42
67862;DHT22;54665;51.462;6.698;2023-05-18T01:50:02;7.56;72.68
67862;DHT22;54665;51.462;6.698;2023-05-18T01:52:35;7.56;72.92
67862;DHT22;54665;51.462;6.698;2023-05-18T01:55:03;7.49;72.92
67862;DHT22;54665;51.462;6.698;2023-05-18T01:57:31;7.46;73.08
67862;DHT22;54665;51.462;6.698;2023-05-18T02:00:00;7.43;73.26
67862;DHT22;54665;51.462;6.698;2023-05-18T02:02:28;7.42;73.23
67862;DHT22;54665;51.462;6.698;2023-05-18T02:04:53;7.44;73.30
67862;DHT22;54665;51.462;6.698;2023-05-18T02:07:19;7.50;72.89
67862;DHT22;54665;51.462;6.698;2023-05-18T02:09:44;7.47;73.28
67862;DHT22;54665;51.462;6.698;2023-05-18T02:12:10;7.42;73.57
67862;DHT22;54665;51.462;6.698;2023-05-18T02:14:36;7.46;73.31
67862;DHT22;54665;51.462;6.698;2023-05-18T02:17:02;7.34;73.53
67862;DHT22;54665;51.462;6.698;2023-05-18T02:19:27;7.29;73.80
67862;DHT22;54665;51.462;6.698;2023-05-18T02:21:55;7.26;73.87
67862;DHT22;54665;51.462;6.698;2023-05-18T02:24:21;7.27;73.96
67862;DHT22;54665;51.462;6.698;2023-05-18T02:26:47;7.26;74.06
67862;DHT22;54665;51.462;6.698;2023-05-18T02:29:12;7.23;74.33
67862;DHT22;54665;51.462;6.698;2023-05-18T02:31:39;7.27;74.04
67862;DHT22;54665;51.462;6.698;2023-05-18T02:34:05;7.22;74.27
67862;DHT22;54665;51.462;6.698;2023-05-18T02:36:31;7.29;74.08
67862;DHT22;54665;51.462;6.698;2023-05-18T02:39:02;7.26;74.11
67862;DHT22;54665;51.462;6.698;2023-05-18T02:41:32;7.24;74.27
67862;DHT22;54665;51.462;6.698;2023-05-18T02:43:57;7.24;74.36
67862;DHT22;54665;51.462;6.698;2023-05-18T02:46:23;7.34;74.14
67862;DHT22;54665;51.462;6.698;2023-05-18T02:48:49;7.22;74.36
67862;DHT22;54665;51.462;6.698;2023-05-18T02:51:14;7.22;74.52
67862;DHT22;54665;51.462;6.698;2023-05-18T02:53:40;7.23;74.31
67862;DHT22;54665;51.462;6.698;2023-05-18T02:56:09;7.13;75.01
67862;DHT22;54665;51.462;6.698;2023-05-18T02:58:56;6.99;75.58
67862;DHT22;54665;51.462;6.698;2023-05-18T03:01:27;7.12;75.02
67862;DHT22;54665;51.462;6.698;2023-05-18T03:03:53;7.03;75.23
67862;DHT22;54665;51.462;6.698;2023-05-18T03:06:19;7.15;74.90
67862;DHT22;54665;51.462;6.698;2023-05-18T03:08:53;7.20;74.72
67862;DHT22;54665;51.462;6.698;2023-05-18T03:11:22;7.13;75.15
67862;DHT22;54665;51.462;6.698;2023-05-18T03:13:48;7.06;75.04
67862;DHT22;54665;51.462;6.698;2023-05-18T03:16:14;7.03;75.14
67862;DHT22;54665;51.462;6.698;2023-05-18T03:18:40;7.01;75.47
67862;DHT22;54665;51.462;6.698;2023-05-18T03:21:05;6.91;75.79
67862;DHT22;54665;51.462;6.698;2023-05-18T03:23:33;6.95;75.50
67862;DHT22;54665;51.462;6.698;2023-05-18T03:26:00;6.87;75.78
67862;DHT22;54665;51.462;6.698;2023-05-18T03:28:28;6.88;75.92
67862;DHT22;54665;51.462;6.698;2023-05-18T03:30:54;6.70;76.73
67862;DHT22;54665;51.462;6.698;2023-05-18T03:33:20;6.78;76.37
67862;DHT22;54665;51.462;6.698;2023-05-18T03:35:45;6.88;76.48
67862;DHT22;54665;51.462;6.698;2023-05-18T03:38:11;6.91;76.29
67862;DHT22;54665;51.462;6.698;2023-05-18T03:40:41;6.89;76.35
67862;DHT22;54665;51.462;6.698;2023-05-18T03:43:06;6.92;76.46
67862;DHT22;54665;51.462;6.698;2023-05-18T03:45:32;6.99;75.86
67862;DHT22;54665;51.462;6.698;2023-05-18T03:47:57;6.93;76.42
67862;DHT22;54665;51.462;6.698;2023-05-18T03:50:23;6.93;76.25
67862;DHT22;54665;51.462;6.698;2023-05-18T03:52:49;7.02;76.04
67862;DHT22;54665;51.462;6.698;2023-05-18T03:55:17;7.10;76.01
67862;DHT22;54665;51.462;6.698;2023-05-18T03:57:46;7.10;75.91
67862;DHT22;54665;51.462;6.698;2023-05-18T04:00:12;7.24;75.42
67862;DHT22;54665;51.462;6.698;2023-05-18T04:02:44;7.18;75.51
67862;DHT22;54665;51.462;6.698;2023-05-18T04:05:11;7.26;75.34
67862;DHT22;54665;51.462;6.698;2023-05-18T04:07:37;7.30;75.02
67862;DHT22;54665;51.462;6.698;2023-05-18T04:10:09;7.42;74.91
67862;DHT22;54665;51.462;6.698;2023-05-18T04:12:35;7.44;74.87
67862;DHT22;54665;51.462;6.698;2023-05-18T04:15:01;7.50;74.85
67862;DHT22;54665;51.462;6.698;2023-05-18T04:17:28;7.46;74.53
67862;DHT22;54665;51.462;6.698;2023-05-18T04:19:53;7.63;74.25
67862;DHT22;54665;51.462;6.698;2023-05-18T04:22:19;7.74;74.04
67862;DHT22;54665;51.462;6.698;2023-05-18T04:24:46;7.83;73.39
67862;DHT22;54665;51.462;6.698;2023-05-18T04:27:12;7.92;73.19
67862;DHT22;54665;51.462;6.698;2023-05-18T04:29:38;7.81;73.13
67862;DHT22;54665;51.462;6.698;2023-05-18T04:32:08;7.91;72.91
67862;DHT22;54665;51.462;6.698;2023-05-18T04:34:35;7.98;72.77
67862;DHT22;54665;51.462;6.698;2023-05-18T04:37:02;8.20;72.00
67862;DHT22;54665;51.462;6.698;2023-05-18T04:39:33;8.06;72.33
67862;DHT22;54665;51.462;6.698;2023-05-18T04:42:02;8.25;71.72
67862;DHT22;54665;51.462;6.698;2023-05-18T04:44:29;8.35;71.82
67862;DHT22;54665;51.462;6.698;2023-05-18T04:46:58;8.31;71.32
67862;DHT22;54665;51.462;6.698;2023-05-18T04:49:24;8.20;71.60
67862;DHT22;54665;51.462;6.698;2023-05-18T04:51:51;8.42;71.35
67862;DHT22;54665;51.462;6.698;2023-05-18T04:54:24;8.43;71.47
67862;DHT22;54665;51.462;6.698;2023-05-18T04:56:51;8.49;71.16
67862;DHT22;54665;51.462;6.698;2023-05-18T04:59:16;8.55;70.69
67862;DHT22;54665;51.462;6.698;2023-05-18T05:01:42;8.45;70.19
67862;DHT22;54665;51.462;6.698;2023-05-18T05:04:09;8.57;70.36
67862;DHT22;54665;51.462;6.698;2023-05-18T05:06:35;8.59;70.36
67862;DHT22;54665;51.462;6.698;2023-05-18T05:09:01;8.53;69.88
67862;DHT22;54665;51.462;6.698;2023-05-18T05:11:27;8.70;70.40
67862;DHT22;54665;51.462;6.698;2023-05-18T05:13:52;8.63;69.89
67862;DHT22;54665;51.462;6.698;2023-05-18T05:16:18;8.70;70.03
67862;DHT22;54665;51.462;6.698;2023-05-18T05:18:43;8.81;70.18
67862;DHT22;54665;51.462;6.698;2023-05-18T05:21:09;8.70;70.13
67862;DHT22;54665;51.462;6.698;2023-05-18T05:23:34;8.91;69.19
67862;DHT22;54665;51.462;6.698;2023-05-18T05:26:00;8.87;69.73
67862;DHT22;54665;51.462;6.698;2023-05-18T05:28:27;8.91;69.54
67862;DHT22;54665;51.462;6.698;2023-05-18T05:30:53;9.04;68.75
67862;DHT22;54665;51.462;6.698;2023-05-18T05:33:18;9.23;68.52
67862;DHT22;54665;51.462;6.698;2023-05-18T05:35:44;9.03;68.06
67862;DHT22;54665;51.462;6.698;2023-05-18T05:38:10;9.21;67.99
67862;DHT22;54665;51.462;6.698;2023-05-18T05:40:35;9.21;68.17
67862;DHT22;54665;51.462;6.698;2023-05-18T05:43:04;9.10;68.00
67862;DHT22;54665;51.462;6.698;2023-05-18T05:45:31;9.44;67.72
67862;DHT22;54665;51.462;6.698;2023-05-18T05:47:59;9.37;67.34
67862;DHT22;54665;51.462;6.698;2023-05-18T05:50:26;9.49;66.95
67862;DHT22;54665;51.462;6.698;2023-05-18T05:52:58;9.78;66.52
67862;DHT22;54665;51.462;6.698;2023-05-18T05:55:25;9.87;66.43
67862;DHT22;54665;51.462;6.698;2023-05-18T05:57:51;10.06;65.78
67862;DHT22;54665;51.462;6.698;2023-05-18T06:00:17;10.34;65.23
67862;DHT22;54665;51.462;6.698;2023-05-18T06:02:51;11.01;63.61
67862;DHT22;54665;51.462;6.698;2023-05-18T06:05:23;11.94;59.18
67862;DHT22;54665;51.462;6.698;2023-05-18T06:07:50;13.00;56.85
67862;DHT22;54665;51.462;6.698;2023-05-18T06:10:16;13.81;55.40
67862;DHT22;54665;51.462;6.698;2023-05-18T06:12:41;13.23;55.61
67862;DHT22;54665;51.462;6.698;2023-05-18T06:15:07;14.18;54.64
67862;DHT22;54665;51.462;6.698;2023-05-18T06:17:34;14.44;54.04
67862;DHT22;54665;51.462;6.698;2023-05-18T06:20:00;14.76;52.60
67862;DHT22;54665;51.462;6.698;2023-05-18T06:22:25;15.05;52.41
67862;DHT22;54665;51.462;6.698;2023-05-18T06:25:14;15.54;50.57
67862;DHT22;54665;51.462;6.698;2023-05-18T06:28:06;15.58;50.44
67862;DHT22;54665;51.462;6.698;2023-05-18T06:30:39;15.96;49.76
67862;DHT22;54665;51.462;6.698;2023-05-18T06:33:27;15.07;50.81
67862;DHT22;54665;51.462;6.698;2023-05-18T06:35:53;15.14;50.89
67862;DHT22;54665;51.462;6.698;2023-05-18T06:38:19;14.49;52.54
67862;DHT22;54665;51.462;6.698;2023-05-18T06:40:45;14.37;53.94
67862;DHT22;54665;51.462;6.698;2023-05-18T06:43:10;14.83;51.90
67862;DHT22;54665;51.462;6.698;2023-05-18T06:45:50;15.52;50.57
67862;DHT22;54665;51.462;6.698;2023-05-18T06:48:41;15.54;48.73
67862;DHT22;54665;51.462;6.698;2023-05-18T06:51:09;15.61;49.04
67862;DHT22;54665;51.462;6.698;2023-05-18T06:53:34;15.89;48.76
67862;DHT22;54665;51.462;6.698;2023-05-18T06:56:00;16.51;47.28
67862;DHT22;54665;51.462;6.698;2023-05-18T06:58:26;16.88;46.89
67862;DHT22;54665;51.462;6.698;2023-05-18T07:00:53;16.75;45.44
67862;DHT22;54665;51.462;6.698;2023-05-18T07:03:18;15.96;47.06
67862;DHT22;54665;51.462;6.698;2023-05-18T07:05:44;16.30;47.97
67862;DHT22;54665;51.462;6.698;2023-05-18T07:08:09;16.57;46.77
67862;DHT22;54665;51.462;6.698;2023-05-18T07:10:35;17.30;45.08
67862;DHT22;54665;51.462;6.698;2023-05-18T07:13:00;18.56;43.37
67862;DHT22;54665;51.462;6.698;2023-05-18T07:15:25;18.93;42.60
67862;DHT22;54665;51.462;6.698;2023-05-18T07:17:51;18.47;42.88
67862;DHT22;54665;51.462;6.698;2023-05-18T07:20:16;18.49;42.63
67862;DHT22;54665;51.462;6.698;2023-05-18T07:22:42;18.77;42.41
67862;DHT22;54665;51.462;6.698;2023-05-18T07:25:08;18.09;43.59
67862;DHT22;54665;51.462;6.698;2023-05-18T07:27:33;17.87;45.12
67862;DHT22;54665;51.462;6.698;2023-05-18T07:29:58;18.11;44.34
67862;DHT22;54665;51.462;6.698;2023-05-18T07:32:24;16.95;45.90
67862;DHT22;54665;51.462;6.698;2023-05-18T07:34:49;17.81;44.09
67862;DHT22;54665;51.462;6.698;2023-05-18T07:37:15;18.58;44.19
67862;DHT22;54665;51.462;6.698;2023-05-18T07:39:40;18.58;41.51
67862;DHT22;54665;51.462;6.698;2023-05-18T07:42:07;18.66;43.49
67862;DHT22;54665;51.462;6.698;2023-05-18T07:44:32;19.16;42.40
67862;DHT22;54665;51.462;6.698;2023-05-18T07:46:58;18.89;41.17
67862;DHT22;54665;51.462;6.698;2023-05-18T07:49:23;17.98;42.77
67862;DHT22;54665;51.462;6.698;2023-05-18T07:51:49;18.47;42.43
67862;DHT22;54665;51.462;6.698;2023-05-18T07:54:15;17.32;43.98
67862;DHT22;54665;51.462;6.698;2023-05-18T07:56:41;17.63;43.51
67862;DHT22;54665;51.462;6.698;2023-05-18T07:59:08;18.01;43.21
67862;DHT22;54665;51.462;6.698;2023-05-18T08:01:34;18.19;43.03
67862;DHT22;54665;51.462;6.698;2023-05-18T08:04:00;18.96;43.23
67862;DHT22;54665;51.462;6.698;2023-05-18T08:06:25;19.31;41.86
67862;DHT22;54665;51.462;6.698;2023-05-18T08:08:51;19.70;39.30
67862;DHT22;54665;51.462;6.698;2023-05-18T08:11:16;19.00;41.61
67862;DHT22;54665;51.462;6.698;2023-05-18T08:13:41;17.83;43.06
67862;DHT22;54665;51.462;6.698;2023-05-18T08:16:07;17.22;44.19
67862;DHT22;54665;51.462;6.698;2023-05-18T08:18:33;18.25;42.45
67862;DHT22;54665;51.462;6.698;2023-05-18T08:20:58;18.48;41.31
67862;DHT22;54665;51.462;6.698;2023-05-18T08:23:24;18.65;42.21
67862;DHT22;54665;51.462;6.698;2023-05-18T08:25:50;18.89;40.66
67862;DHT22;54665;51.462;6.698;2023-05-18T08:28:15;19.53;39.46
67862;DHT22;54665;51.462;6.698;2023-05-18T08:30:41;18.95;40.77
67862;DHT22;54665;51.462;6.698;2023-05-18T08:33:06;18.18;42.07
67862;DHT22;54665;51.462;6.698;2023-05-18T08:35:32;18.56;40.01
67862;DHT22;54665;51.462;6.698;2023-05-18T08:37:57;19.09;40.44
67862;DHT22;54665;51.462;6.698;2023-05-18T08:40:25;19.92;39.01
67862;DHT22;54665;51.462;6.698;2023-05-18T08:43:14;20.28;39.19
67862;DHT22;54665;51.462;6.698;2023-05-18T08:48:36;19.11;41.40
67862;DHT22;54665;51.462;6.698;2023-05-18T08:51:04;19.23;40.40
67862;DHT22;54665;51.462;6.698;2023-05-18T08:53:31;20.12;38.62
67862;DHT22;54665;51.462;6.698;2023-05-18T08:55:58;18.52;40.18
67862;DHT22;54665;51.462;6.698;2023-05-18T08:58:33;19.38;39.64
67862;DHT22;54665;51.462;6.698;2023-05-18T09:00:59;19.03;40.11
67862;DHT22;54665;51.462;6.698;2023-05-18T09:03:25;19.71;38.98
67862;DHT22;54665;51.462;6.698;2023-05-18T09:05:51;19.68;40.12
67862;DHT22;54665;51.462;6.698;2023-05-18T09:08:18;18.93;39.67
67862;DHT22;54665;51.462;6.698;2023-05-18T09:10:44;18.79;40.72
67862;DHT22;54665;51.462;6.698;2023-05-18T09:13:12;19.16;39.88
67862;DHT22;54665;51.462;6.698;2023-05-18T09:15:39;18.55;41.34
67862;DHT22;54665;51.462;6.698;2023-05-18T09:18:04;17.32;42.77
67862;DHT22;54665;51.462;6.698;2023-05-18T09:20:31;18.79;41.85
67862;DHT22;54665;51.462;6.698;2023-05-18T09:22:56;19.09;40.80
67862;DHT22;54665;51.462;6.698;2023-05-18T09:25:22;19.77;38.68
67862;DHT22;54665;51.462;6.698;2023-05-18T09:27:48;20.74;36.40
67862;DHT22;54665;51.462;6.698;2023-05-18T09:30:15;20.12;38.94
67862;DHT22;54665;51.462;6.698;2023-05-18T09:32:42;17.87;40.50
67862;DHT22;54665;51.462;6.698;2023-05-18T09:35:10;18.45;41.93
67862;DHT22;54665;51.462;6.698;2023-05-18T09:37:40;17.83;42.54
67862;DHT22;54665;51.462;6.698;2023-05-18T09:40:06;19.20;41.28
67862;DHT22;54665;51.462;6.698;2023-05-18T09:42:37;20.22;39.59
67862;DHT22;54665;51.462;6.698;2023-05-18T09:45:22;19.43;40.56
67862;DHT22;54665;51.462;6.698;2023-05-18T09:47:49;19.99;39.25
67862;DHT22;54665;51.462;6.698;2023-05-18T09:50:19;19.46;41.58
67862;DHT22;54665;51.462;6.698;2023-05-18T09:52:45;19.79;40.78
67862;DHT22;54665;51.462;6.698;2023-05-18T09:55:11;19.71;38.35
67862;DHT22;54665;51.462;6.698;2023-05-18T09:57:39;19.04;41.07
67862;DHT22;54665;51.462;6.698;2023-05-18T10:00:06;19.35;39.29
67862;DHT22;54665;51.462;6.698;2023-05-18T10:02:41;18.76;39.46
67862;DHT22;54665;51.462;6.698;2023-05-18T10:05:24;19.24;40.41
67862;DHT22;54665;51.462;6.698;2023-05-18T10:07:56;20.30;38.10
67862;DHT22;54665;51.462;6.698;2023-05-18T10:10:24;20.12;39.54
67862;DHT22;54665;51.462;6.698;2023-05-18T10:12:50;20.46;38.26
67862;DHT22;54665;51.462;6.698;2023-05-18T10:15:18;20.26;37.74
67862;DHT22;54665;51.462;6.698;2023-05-18T10:17:46;21.10;38.45
67862;DHT22;54665;51.462;6.698;2023-05-18T10:20:14;21.78;38.38
67862;DHT22;54665;51.462;6.698;2023-05-18T10:22:44;21.27;38.48
67862;DHT22;54665;51.462;6.698;2023-05-18T10:25:10;20.15;37.81
67862;DHT22;54665;51.462;6.698;2023-05-18T10:27:36;19.03;39.73
67862;DHT22;54665;51.462;6.698;2023-05-18T10:30:02;18.85;40.78
67862;DHT22;54665;51.462;6.698;2023-05-18T10:32:34;19.03;41.53
67862;DHT22;54665;51.462;6.698;2023-05-18T10:35:00;18.99;43.38
67862;DHT22;54665;51.462;6.698;2023-05-18T10:37:27;18.59;40.91
67862;DHT22;54665;51.462;6.698;2023-05-18T10:39:55;17.66;42.06
67862;DHT22;54665;51.462;6.698;2023-05-18T10:42:24;17.78;42.10
67862;DHT22;54665;51.462;6.698;2023-05-18T10:44:51;18.55;39.83
67862;DHT22;54665;51.462;6.698;2023-05-18T10:47:18;18.63;44.33
67862;DHT22;54665;51.462;6.698;2023-05-18T10:49:46;19.58;42.31
67862;DHT22;54665;51.462;6.698;2023-05-18T10:52:15;19.43;40.51
67862;DHT22;54665;51.462;6.698;2023-05-18T10:54:41;19.57;40.80
67862;DHT22;54665;51.462;6.698;2023-05-18T10:57:09;19.30;40.69
67862;DHT22;54665;51.462;6.698;2023-05-18T10:59:38;19.26;39.22
67862;DHT22;54665;51.462;6.698;2023-05-18T11:02:05;18.89;41.90
67862;DHT22;54665;51.462;6.698;2023-05-18T11:04:31;19.34;42.77
67862;DHT22;54665;51.462;6.698;2023-05-18T11:07:00;19.65;38.70
67862;DHT22;54665;51.462;6.698;2023-05-18T11:09:28;19.54;41.20
67862;DHT22;54665;51.462;6.698;2023-05-18T11:11:56;18.77;42.15
67862;DHT22;54665;51.462;6.698;2023-05-18T11:14:31;18.76;42.39
67862;DHT22;54665;51.462;6.698;2023-05-18T11:17:25;18.99;40.76
67862;DHT22;54665;51.462;6.698;2023-05-18T11:22:51;18.15;42.44
67862;DHT22;54665;51.462;6.698;2023-05-18T11:27:58;19.10;41.01
67862;DHT22;54665;51.462;6.698;2023-05-18T11:30:29;19.48;42.19
67862;DHT22;54665;51.462;6.698;2023-05-18T11:33:20;20.39;38.84
67862;DHT22;54665;51.462;6.698;2023-05-18T11:36:05;20.11;40.82
67862;DHT22;54665;51.462;6.698;2023-05-18T11:38:54;20.40;40.70
67862;DHT22;54665;51.462;6.698;2023-05-18T11:41:39;19.27;39.89
67862;DHT22;54665;51.462;6.698;2023-05-18T11:44:16;18.88;41.10
67862;DHT22;54665;51.462;6.698;2023-05-18T11:49:17;19.47;42.23
67862;DHT22;54665;51.462;6.698;2023-05-18T11:54:25;19.47;40.81
67862;DHT22;54665;51.462;6.698;2023-05-18T11:56:54;19.34;41.93
67862;DHT22;54665;51.462;6.698;2023-05-18T12:02:01;18.69;43.35
67862;DHT22;54665;51.462;6.698;2023-05-18T12:04:28;19.20;43.88
67862;DHT22;54665;51.462;6.698;2023-05-18T12:06:56;18.59;44.02
67862;DHT22;54665;51.462;6.698;2023-05-18T12:09:23;18.69;42.71
67862;DHT22;54665;51.462;6.698;2023-05-18T12:11:49;19.14;42.20
67862;DHT22;54665;51.462;6.698;2023-05-18T12:14:17;19.78;40.27
67862;DHT22;54665;51.462;6.698;2023-05-18T12:16:43;19.96;42.94
67862;DHT22;54665;51.462;6.698;2023-05-18T12:19:10;20.23;39.53
67862;DHT22;54665;51.462;6.698;2023-05-18T12:21:35;20.08;40.35
67862;DHT22;54665;51.462;6.698;2023-05-18T12:24:03;20.08;38.88
67862;DHT22;54665;51.462;6.698;2023-05-18T12:26:29;19.96;42.09
67862;DHT22;54665;51.462;6.698;2023-05-18T12:28:59;20.50;39.84
67862;DHT22;54665;51.462;6.698;2023-05-18T12:31:25;20.42;39.75
67862;DHT22;54665;51.462;6.698;2023-05-18T12:33:52;19.55;41.73
67862;DHT22;54665;51.462;6.698;2023-05-18T12:36:19;19.85;42.46
67862;DHT22;54665;51.462;6.698;2023-05-18T12:38:47;18.88;42.20
67862;DHT22;54665;51.462;6.698;2023-05-18T12:41:26;18.27;42.78
67862;DHT22;54665;51.462;6.698;2023-05-18T12:43:52;18.98;42.22
67862;DHT22;54665;51.462;6.698;2023-05-18T12:46:22;19.62;40.42
67862;DHT22;54665;51.462;6.698;2023-05-18T12:48:55;19.27;42.10
67862;DHT22;54665;51.462;6.698;2023-05-18T12:51:21;19.77;44.28
67862;DHT22;54665;51.462;6.698;2023-05-18T12:53:48;19.78;43.89
67862;DHT22;54665;51.462;6.698;2023-05-18T12:56:14;19.62;40.27
67862;DHT22;54665;51.462;6.698;2023-05-18T12:58:40;20.28;40.08
67862;DHT22;54665;51.462;6.698;2023-05-18T13:01:18;20.88;39.14
67862;DHT22;54665;51.462;6.698;2023-05-18T13:03:43;20.20;41.33
67862;DHT22;54665;51.462;6.698;2023-05-18T13:06:08;20.42;41.35
67862;DHT22;54665;51.462;6.698;2023-05-18T13:08:35;20.16;38.38
67862;DHT22;54665;51.462;6.698;2023-05-18T13:11:02;20.36;39.53
67862;DHT22;54665;51.462;6.698;2023-05-18T13:13:28;20.26;41.46
67862;DHT22;54665;51.462;6.698;2023-05-18T13:15:53;20.88;37.07
67862;DHT22;54665;51.462;6.698;2023-05-18T13:18:19;20.77;41.70
67862;DHT22;54665;51.462;6.698;2023-05-18T13:20:48;20.94;39.49
67862;DHT22;54665;51.462;6.698;2023-05-18T13:23:20;20.11;38.79
67862;DHT22;54665;51.462;6.698;2023-05-18T13:25:46;20.46;39.25
67862;DHT22;54665;51.462;6.698;2023-05-18T13:28:14;20.63;39.37
67862;DHT22;54665;51.462;6.698;2023-05-18T13:30:41;21.11;37.84
67862;DHT22;54665;51.462;6.698;2023-05-18T13:33:07;21.11;35.67
67862;DHT22;54665;51.462;6.698;2023-05-18T13:35:33;21.10;37.79
67862;DHT22;54665;51.462;6.698;2023-05-18T13:37:59;21.38;38.29
67862;DHT22;54665;51.462;6.698;2023-05-18T13:40:25;21.24;37.96
67862;DHT22;54665;51.462;6.698;2023-05-18T13:42:50;21.38;39.08
67862;DHT22;54665;51.462;6.698;2023-05-18T13:45:16;20.84;37.19
67862;DHT22;54665;51.462;6.698;2023-05-18T13:47:42;21.22;41.79
67862;DHT22;54665;51.462;6.698;2023-05-18T13:50:09;20.85;38.24
67862;DHT22;54665;51.462;6.698;2023-05-18T13:52:36;21.24;41.53
67862;DHT22;54665;51.462;6.698;2023-05-18T13:55:03;20.69;40.83
67862;DHT22;54665;51.462;6.698;2023-05-18T13:57:29;20.97;38.15
67862;DHT22;54665;51.462;6.698;2023-05-18T13:59:56;21.46;37.68
67862;DHT22;54665;51.462;6.698;2023-05-18T14:02:24;21.62;36.01
67862;DHT22;54665;51.462;6.698;2023-05-18T14:04:49;21.25;37.67
67862;DHT22;54665;51.462;6.698;2023-05-18T14:07:15;21.56;37.35
67862;DHT22;54665;51.462;6.698;2023-05-18T14:09:41;20.61;39.47
67862;DHT22;54665;51.462;6.698;2023-05-18T14:12:06;20.90;38.12
67862;DHT22;54665;51.462;6.698;2023-05-18T14:14:34;21.86;38.09
67862;DHT22;54665;51.462;6.698;2023-05-18T14:16:59;22.16;37.53
67862;DHT22;54665;51.462;6.698;2023-05-18T14:19:24;21.89;38.43
67862;DHT22;54665;51.462;6.698;2023-05-18T14:21:50;21.85;35.94
67862;DHT22;54665;51.462;6.698;2023-05-18T14:24:15;22.60;35.11
67862;DHT22;54665;51.462;6.698;2023-05-18T14:26:40;21.37;39.23
67862;DHT22;54665;51.462;6.698;2023-05-18T14:29:06;21.67;38.33
67862;DHT22;54665;51.462;6.698;2023-05-18T14:31:31;22.44;37.28
67862;DHT22;54665;51.462;6.698;2023-05-18T14:33:57;20.97;35.66
67862;DHT22;54665;51.462;6.698;2023-05-18T14:36:22;21.18;37.33
67862;DHT22;54665;51.462;6.698;2023-05-18T14:38:48;21.82;37.63
67862;DHT22;54665;51.462;6.698;2023-05-18T14:41:13;21.42;38.03
67862;DHT22;54665;51.462;6.698;2023-05-18T14:43:39;21.72;36.03
67862;DHT22;54665;51.462;6.698;2023-05-18T14:46:04;21.39;37.74
67862;DHT22;54665;51.462;6.698;2023-05-18T14:48:30;21.43;34.77
67862;DHT22;54665;51.462;6.698;2023-05-18T14:50:55;21.27;34.94
67862;DHT22;54665;51.462;6.698;2023-05-18T14:53:20;21.75;36.24
67862;DHT22;54665;51.462;6.698;2023-05-18T14:55:46;21.30;34.83
67862;DHT22;54665;51.462;6.698;2023-05-18T14:58:11;20.84;35.23
67862;DHT22;54665;51.462;6.698;2023-05-18T15:00:43;21.12;36.10
67862;DHT22;54665;51.462;6.698;2023-05-18T15:03:08;21.31;37.62
67862;DHT22;54665;51.462;6.698;2023-05-18T15:05:34;20.95;38.97
67862;DHT22;54665;51.462;6.698;2023-05-18T15:07:59;20.42;37.73
67862;DHT22;54665;51.462;6.698;2023-05-18T15:10:25;20.22;37.40
67862;DHT22;54665;51.462;6.698;2023-05-18T15:12:51;20.19;37.37
67862;DHT22;54665;51.462;6.698;2023-05-18T15:15:17;20.43;36.13
67862;DHT22;54665;51.462;6.698;2023-05-18T15:17:42;20.83;36.06
67862;DHT22;54665;51.462;6.698;2023-05-18T15:20:09;21.10;36.48
67862;DHT22;54665;51.462;6.698;2023-05-18T15:22:35;21.45;35.72
67862;DHT22;54665;51.462;6.698;2023-05-18T15:25:05;21.71;35.33
67862;DHT22;54665;51.462;6.698;2023-05-18T15:27:35;20.53;38.41
67862;DHT22;54665;51.462;6.698;2023-05-18T15:30:01;21.25;37.30
67862;DHT22;54665;51.462;6.698;2023-05-18T15:32:27;20.40;38.00
67862;DHT22;54665;51.462;6.698;2023-05-18T15:34:53;21.00;37.95
67862;DHT22;54665;51.462;6.698;2023-05-18T15:37:18;20.19;36.83
67862;DHT22;54665;51.462;6.698;2023-05-18T15:39:44;19.98;37.75
67862;DHT22;54665;51.462;6.698;2023-05-18T15:42:09;20.54;38.10
67862;DHT22;54665;51.462;6.698;2023-05-18T15:44:35;20.57;37.33
67862;DHT22;54665;51.462;6.698;2023-05-18T15:47:01;20.46;38.38
67862;DHT22;54665;51.462;6.698;2023-05-18T15:49:26;20.59;35.80
67862;DHT22;54665;51.462;6.698;2023-05-18T15:51:51;19.83;38.51
67862;DHT22;54665;51.462;6.698;2023-05-18T15:54:17;19.32;38.29
67862;DHT22;54665;51.462;6.698;2023-05-18T15:56:42;20.05;38.18
67862;DHT22;54665;51.462;6.698;2023-05-18T15:59:08;20.30;37.95
67862;DHT22;54665;51.462;6.698;2023-05-18T16:01:34;20.22;38.13